sensor_id;sensor_type;location;lat;lon;timestamp;P1;durP1;ratioP1;P2;durP2;ratioP2
35634;SDS011;21757;43.610;1.440;2022-12-18T00:01:35;23.50;;;15.60;;
35634;SDS011;21757;43.610;1.440;2022-12-18T00:04:02;25.45;;;16.75;;
35634;SDS011;21757;43.610;1.440;2022-12-18T00:06:29;26.90;;;16.65;;
35634;SDS011;21757;43.610;1.440;2022-12-18T00:08:56;27.63;;;18.40;;
35634;SDS011;21757;43.610;1.440;2022-12-18T00:11:23;30.08;;;18.85;;
35634;SDS011;21757;43.610;1.440;2022-12-18T00:13:53;23.33;;;15.77;;
35634;SDS011;21757;43.610;1.440;2022-12-18T00:16:20;23.50;;;14.13;;
35634;SDS011;21757;43.610;1.440;2022-12-18T00:18:48;23.90;;;15.00;;
35634;SDS011;21757;43.610;1.440;2022-12-18T00:21:15;16.63;;;11.98;;
35634;SDS011;21757;43.610;1.440;2022-12-18T00:23:42;21.85;;;13.30;;
35634;SDS011;21757;43.610;1.440;2022-12-18T00:26:13;25.50;;;14.80;;
35634;SDS011;21757;43.610;1.440;2022-12-18T00:28:41;23.52;;;13.25;;
35634;SDS011;21757;43.610;1.440;2022-12-18T00:31:08;22.10;;;13.82;;
35634;SDS011;21757;43.610;1.440;2022-12-18T00:33:36;18.55;;;12.20;;
35634;SDS011;21757;43.610;1.440;2022-12-18T00:38:29;20.98;;;13.95;;
35634;SDS011;21757;43.610;1.440;2022-12-18T00:40:55;20.88;;;14.05;;
35634;SDS011;21757;43.610;1.440;2022-12-18T00:43:20;19.85;;;13.68;;
35634;SDS011;21757;43.610;1.440;2022-12-18T00:45:46;20.10;;;12.75;;
35634;SDS011;21757;43.610;1.440;2022-12-18T00:48:12;43.72;;;27.95;;
35634;SDS011;21757;43.610;1.440;2022-12-18T00:50:38;36.17;;;23.10;;
35634;SDS011;21757;43.610;1.440;2022-12-18T00:53:03;19.58;;;13.02;;
35634;SDS011;21757;43.610;1.440;2022-12-18T00:55:29;16.70;;;11.93;;
35634;SDS011;21757;43.610;1.440;2022-12-18T00:57:55;16.63;;;12.35;;
35634;SDS011;21757;43.610;1.440;2022-12-18T01:00:20;17.45;;;12.05;;
35634;SDS011;21757;43.610;1.440;2022-12-18T01:02:47;14.63;;;11.23;;
35634;SDS011;21757;43.610;1.440;2022-12-18T01:05:13;16.27;;;12.10;;
35634;SDS011;21757;43.610;1.440;2022-12-18T01:07:39;18.02;;;12.27;;
35634;SDS011;21757;43.610;1.440;2022-12-18T01:10:05;16.50;;;12.10;;
35634;SDS011;21757;43.610;1.440;2022-12-18T01:12:32;17.95;;;13.02;;
35634;SDS011;21757;43.610;1.440;2022-12-18T01:14:58;19.40;;;12.23;;
35634;SDS011;21757;43.610;1.440;2022-12-18T01:17:24;17.88;;;12.45;;
35634;SDS011;21757;43.610;1.440;2022-12-18T01:19:50;19.00;;;12.93;;
35634;SDS011;21757;43.610;1.440;2022-12-18T01:22:15;20.80;;;13.93;;
35634;SDS011;21757;43.610;1.440;2022-12-18T01:24:41;20.83;;;14.02;;
35634;SDS011;21757;43.610;1.440;2022-12-18T01:27:06;22.70;;;14.00;;
35634;SDS011;21757;43.610;1.440;2022-12-18T01:29:32;20.77;;;13.05;;
35634;SDS011;21757;43.610;1.440;2022-12-18T01:31:58;24.67;;;14.23;;
35634;SDS011;21757;43.610;1.440;2022-12-18T01:34:24;22.77;;;15.20;;
35634;SDS011;21757;43.610;1.440;2022-12-18T01:36:49;23.70;;;15.05;;
35634;SDS011;21757;43.610;1.440;2022-12-18T01:39:17;25.38;;;15.85;;
35634;SDS011;21757;43.610;1.440;2022-12-18T01:41:44;23.45;;;14.50;;
35634;SDS011;21757;43.610;1.440;2022-12-18T01:47:32;20.67;;;15.10;;
35634;SDS011;21757;43.610;1.440;2022-12-18T01:50:09;23.15;;;15.18;;
35634;SDS011;21757;43.610;1.440;2022-12-18T01:52:53;21.85;;;15.00;;
35634;SDS011;21757;43.610;1.440;2022-12-18T01:55:23;22.92;;;14.55;;
35634;SDS011;21757;43.610;1.440;2022-12-18T01:57:52;21.42;;;14.75;;
35634;SDS011;21757;43.610;1.440;2022-12-18T02:00:20;23.17;;;13.75;;
35634;SDS011;21757;43.610;1.440;2022-12-18T02:02:48;21.33;;;14.98;;
35634;SDS011;21757;43.610;1.440;2022-12-18T02:05:15;23.55;;;15.45;;
35634;SDS011;21757;43.610;1.440;2022-12-18T02:07:57;21.20;;;14.50;;
35634;SDS011;21757;43.610;1.440;2022-12-18T02:18:48;20.15;;;13.65;;
35634;SDS011;21757;43.610;1.440;2022-12-18T02:21:36;19.83;;;14.45;;
35634;SDS011;21757;43.610;1.440;2022-12-18T02:25:00;17.90;;;13.13;;
35634;SDS011;21757;43.610;1.440;2022-12-18T02:27:23;19.75;;;12.82;;
35634;SDS011;21757;43.610;1.440;2022-12-18T02:29:53;21.08;;;14.90;;
35634;SDS011;21757;43.610;1.440;2022-12-18T02:32:23;19.77;;;14.23;;
35634;SDS011;21757;43.610;1.440;2022-12-18T02:34:52;20.05;;;13.82;;
35634;SDS011;21757;43.610;1.440;2022-12-18T02:37:22;20.80;;;13.70;;
35634;SDS011;21757;43.610;1.440;2022-12-18T02:39:50;21.45;;;14.27;;
35634;SDS011;21757;43.610;1.440;2022-12-18T02:42:19;21.65;;;14.02;;
35634;SDS011;21757;43.610;1.440;2022-12-18T02:44:48;20.73;;;14.45;;
35634;SDS011;21757;43.610;1.440;2022-12-18T02:47:22;20.90;;;14.33;;
35634;SDS011;21757;43.610;1.440;2022-12-18T02:58:35;18.00;;;13.73;;
35634;SDS011;21757;43.610;1.440;2022-12-18T03:01:21;19.77;;;13.55;;
35634;SDS011;21757;43.610;1.440;2022-12-18T03:03:52;22.00;;;14.43;;
35634;SDS011;21757;43.610;1.440;2022-12-18T03:06:33;21.08;;;13.85;;
35634;SDS011;21757;43.610;1.440;2022-12-18T03:09:09;19.88;;;13.77;;
35634;SDS011;21757;43.610;1.440;2022-12-18T03:11:40;24.77;;;15.02;;
35634;SDS011;21757;43.610;1.440;2022-12-18T03:14:28;23.38;;;14.25;;
35634;SDS011;21757;43.610;1.440;2022-12-18T03:16:57;21.08;;;14.65;;
35634;SDS011;21757;43.610;1.440;2022-12-18T03:19:27;21.02;;;14.95;;
35634;SDS011;21757;43.610;1.440;2022-12-18T03:21:57;23.63;;;14.02;;
35634;SDS011;21757;43.610;1.440;2022-12-18T03:24:26;20.85;;;14.13;;
35634;SDS011;21757;43.610;1.440;2022-12-18T03:26:57;22.73;;;14.38;;
35634;SDS011;21757;43.610;1.440;2022-12-18T03:32:15;23.88;;;14.13;;
35634;SDS011;21757;43.610;1.440;2022-12-18T03:34:50;22.42;;;15.60;;
35634;SDS011;21757;43.610;1.440;2022-12-18T03:37:16;20.67;;;14.77;;
35634;SDS011;21757;43.610;1.440;2022-12-18T03:39:42;20.27;;;14.27;;
35634;SDS011;21757;43.610;1.440;2022-12-18T03:42:25;21.90;;;14.50;;
35634;SDS011;21757;43.610;1.440;2022-12-18T03:50:27;19.70;;;13.55;;
35634;SDS011;21757;43.610;1.440;2022-12-18T03:55:51;21.25;;;13.32;;
35634;SDS011;21757;43.610;1.440;2022-12-18T03:58:19;18.67;;;12.43;;
35634;SDS011;21757;43.610;1.440;2022-12-18T04:00:49;19.27;;;13.30;;
35634;SDS011;21757;43.610;1.440;2022-12-18T04:03:17;17.48;;;12.13;;
35634;SDS011;21757;43.610;1.440;2022-12-18T04:05:45;21.23;;;13.05;;
35634;SDS011;21757;43.610;1.440;2022-12-18T04:08:13;18.33;;;12.52;;
35634;SDS011;21757;43.610;1.440;2022-12-18T04:10:39;39.65;;;20.55;;
35634;SDS011;21757;43.610;1.440;2022-12-18T04:13:05;28.38;;;15.48;;
35634;SDS011;21757;43.610;1.440;2022-12-18T04:15:31;26.92;;;15.05;;
35634;SDS011;21757;43.610;1.440;2022-12-18T04:17:59;20.23;;;12.77;;
35634;SDS011;21757;43.610;1.440;2022-12-18T04:20:26;27.00;;;14.52;;
35634;SDS011;21757;43.610;1.440;2022-12-18T04:22:53;30.50;;;16.10;;
35634;SDS011;21757;43.610;1.440;2022-12-18T04:25:18;46.22;;;20.67;;
35634;SDS011;21757;43.610;1.440;2022-12-18T04:27:44;38.35;;;19.60;;
35634;SDS011;21757;43.610;1.440;2022-12-18T04:30:10;48.55;;;21.05;;
35634;SDS011;21757;43.610;1.440;2022-12-18T04:32:36;39.38;;;18.90;;
35634;SDS011;21757;43.610;1.440;2022-12-18T04:35:02;29.77;;;14.75;;
35634;SDS011;21757;43.610;1.440;2022-12-18T04:37:29;18.90;;;12.20;;
35634;SDS011;21757;43.610;1.440;2022-12-18T04:39:55;19.70;;;11.68;;
35634;SDS011;21757;43.610;1.440;2022-12-18T04:42:22;20.73;;;12.50;;
35634;SDS011;21757;43.610;1.440;2022-12-18T04:44:47;24.25;;;12.88;;
35634;SDS011;21757;43.610;1.440;2022-12-18T04:47:13;21.73;;;13.63;;
35634;SDS011;21757;43.610;1.440;2022-12-18T04:49:39;37.80;;;21.55;;
35634;SDS011;21757;43.610;1.440;2022-12-18T04:52:05;28.80;;;15.23;;
35634;SDS011;21757;43.610;1.440;2022-12-18T04:54:30;37.53;;;18.20;;
35634;SDS011;21757;43.610;1.440;2022-12-18T04:56:56;18.27;;;12.38;;
35634;SDS011;21757;43.610;1.440;2022-12-18T04:59:22;30.08;;;15.77;;
35634;SDS011;21757;43.610;1.440;2022-12-18T05:01:47;24.60;;;14.40;;
35634;SDS011;21757;43.610;1.440;2022-12-18T05:04:13;28.15;;;16.23;;
35634;SDS011;21757;43.610;1.440;2022-12-18T05:06:38;18.98;;;12.77;;
35634;SDS011;21757;43.610;1.440;2022-12-18T05:09:04;18.10;;;12.05;;
35634;SDS011;21757;43.610;1.440;2022-12-18T05:11:30;18.55;;;12.73;;
35634;SDS011;21757;43.610;1.440;2022-12-18T05:13:56;15.15;;;11.27;;
35634;SDS011;21757;43.610;1.440;2022-12-18T05:16:21;22.45;;;14.63;;
35634;SDS011;21757;43.610;1.440;2022-12-18T05:18:47;16.48;;;11.88;;
35634;SDS011;21757;43.610;1.440;2022-12-18T05:21:12;16.67;;;11.85;;
35634;SDS011;21757;43.610;1.440;2022-12-18T05:23:38;20.73;;;14.23;;
35634;SDS011;21757;43.610;1.440;2022-12-18T05:26:04;19.08;;;13.93;;
35634;SDS011;21757;43.610;1.440;2022-12-18T05:28:32;21.10;;;14.98;;
35634;SDS011;21757;43.610;1.440;2022-12-18T05:31:00;19.92;;;13.93;;
35634;SDS011;21757;43.610;1.440;2022-12-18T05:33:30;23.38;;;15.55;;
35634;SDS011;21757;43.610;1.440;2022-12-18T05:35:58;19.90;;;14.88;;
35634;SDS011;21757;43.610;1.440;2022-12-18T05:38:27;20.63;;;14.57;;
35634;SDS011;21757;43.610;1.440;2022-12-18T05:40:54;21.55;;;14.75;;
35634;SDS011;21757;43.610;1.440;2022-12-18T05:43:21;21.92;;;15.32;;
35634;SDS011;21757;43.610;1.440;2022-12-18T05:45:47;21.55;;;14.68;;
35634;SDS011;21757;43.610;1.440;2022-12-18T05:48:14;19.75;;;13.65;;
35634;SDS011;21757;43.610;1.440;2022-12-18T05:50:40;20.45;;;14.27;;
35634;SDS011;21757;43.610;1.440;2022-12-18T05:53:07;19.83;;;13.25;;
35634;SDS011;21757;43.610;1.440;2022-12-18T05:55:34;17.42;;;12.95;;
35634;SDS011;21757;43.610;1.440;2022-12-18T05:58:01;17.40;;;13.02;;
35634;SDS011;21757;43.610;1.440;2022-12-18T06:00:28;21.88;;;13.60;;
35634;SDS011;21757;43.610;1.440;2022-12-18T06:02:54;19.23;;;13.77;;
35634;SDS011;21757;43.610;1.440;2022-12-18T06:05:19;19.27;;;13.55;;
35634;SDS011;21757;43.610;1.440;2022-12-18T06:07:45;20.35;;;13.30;;
35634;SDS011;21757;43.610;1.440;2022-12-18T06:10:11;18.50;;;13.82;;
35634;SDS011;21757;43.610;1.440;2022-12-18T06:12:37;20.25;;;13.27;;
35634;SDS011;21757;43.610;1.440;2022-12-18T06:15:03;19.80;;;12.85;;
35634;SDS011;21757;43.610;1.440;2022-12-18T06:17:32;17.98;;;13.07;;
35634;SDS011;21757;43.610;1.440;2022-12-18T06:19:58;18.42;;;12.32;;
35634;SDS011;21757;43.610;1.440;2022-12-18T06:22:24;17.40;;;11.73;;
35634;SDS011;21757;43.610;1.440;2022-12-18T06:24:51;18.42;;;12.68;;
35634;SDS011;21757;43.610;1.440;2022-12-18T06:27:17;17.90;;;12.55;;
35634;SDS011;21757;43.610;1.440;2022-12-18T06:29:42;16.00;;;12.07;;
35634;SDS011;21757;43.610;1.440;2022-12-18T06:32:08;18.67;;;12.35;;
35634;SDS011;21757;43.610;1.440;2022-12-18T06:34:34;16.98;;;12.48;;
35634;SDS011;21757;43.610;1.440;2022-12-18T06:37:02;17.13;;;12.13;;
35634;SDS011;21757;43.610;1.440;2022-12-18T06:39:28;16.58;;;12.55;;
35634;SDS011;21757;43.610;1.440;2022-12-18T06:41:54;16.73;;;12.93;;
35634;SDS011;21757;43.610;1.440;2022-12-18T06:44:19;17.42;;;11.65;;
35634;SDS011;21757;43.610;1.440;2022-12-18T06:46:45;16.58;;;12.20;;
35634;SDS011;21757;43.610;1.440;2022-12-18T06:49:11;16.92;;;12.10;;
35634;SDS011;21757;43.610;1.440;2022-12-18T06:51:36;18.92;;;13.00;;
35634;SDS011;21757;43.610;1.440;2022-12-18T06:54:02;16.73;;;12.10;;
35634;SDS011;21757;43.610;1.440;2022-12-18T06:56:28;17.52;;;12.75;;
35634;SDS011;21757;43.610;1.440;2022-12-18T06:58:54;18.75;;;12.57;;
35634;SDS011;21757;43.610;1.440;2022-12-18T07:01:20;18.42;;;12.70;;
35634;SDS011;21757;43.610;1.440;2022-12-18T07:03:46;44.65;;;24.23;;
35634;SDS011;21757;43.610;1.440;2022-12-18T07:06:16;23.48;;;15.15;;
35634;SDS011;21757;43.610;1.440;2022-12-18T07:11:09;22.70;;;15.00;;
35634;SDS011;21757;43.610;1.440;2022-12-18T07:13:35;22.40;;;13.77;;
35634;SDS011;21757;43.610;1.440;2022-12-18T07:16:05;21.40;;;15.10;;
35634;SDS011;21757;43.610;1.440;2022-12-18T07:18:37;18.70;;;13.00;;
35634;SDS011;21757;43.610;1.440;2022-12-18T07:21:04;17.30;;;13.80;;
35634;SDS011;21757;43.610;1.440;2022-12-18T07:23:32;24.83;;;15.07;;
35634;SDS011;21757;43.610;1.440;2022-12-18T07:26:05;22.85;;;15.90;;
35634;SDS011;21757;43.610;1.440;2022-12-18T07:28:34;24.45;;;17.25;;
35634;SDS011;21757;43.610;1.440;2022-12-18T07:31:08;25.00;;;16.38;;
35634;SDS011;21757;43.610;1.440;2022-12-18T07:33:39;27.23;;;17.75;;
35634;SDS011;21757;43.610;1.440;2022-12-18T07:36:06;24.92;;;17.60;;
35634;SDS011;21757;43.610;1.440;2022-12-18T07:38:34;28.52;;;18.42;;
35634;SDS011;21757;43.610;1.440;2022-12-18T07:41:10;26.75;;;18.17;;
35634;SDS011;21757;43.610;1.440;2022-12-18T07:43:38;30.15;;;19.92;;
35634;SDS011;21757;43.610;1.440;2022-12-18T07:46:04;26.52;;;18.90;;
35634;SDS011;21757;43.610;1.440;2022-12-18T07:48:30;24.90;;;17.23;;
35634;SDS011;21757;43.610;1.440;2022-12-18T07:50:59;24.98;;;17.17;;
35634;SDS011;21757;43.610;1.440;2022-12-18T07:53:26;23.50;;;17.38;;
35634;SDS011;21757;43.610;1.440;2022-12-18T07:55:58;24.75;;;16.88;;
35634;SDS011;21757;43.610;1.440;2022-12-18T07:58:25;24.23;;;16.85;;
35634;SDS011;21757;43.610;1.440;2022-12-18T08:00:51;24.52;;;17.33;;
35634;SDS011;21757;43.610;1.440;2022-12-18T08:03:17;22.77;;;16.23;;
35634;SDS011;21757;43.610;1.440;2022-12-18T08:05:43;21.48;;;15.95;;
35634;SDS011;21757;43.610;1.440;2022-12-18T08:08:09;23.73;;;15.68;;
35634;SDS011;21757;43.610;1.440;2022-12-18T08:10:35;30.67;;;18.00;;
35634;SDS011;21757;43.610;1.440;2022-12-18T08:13:00;30.77;;;18.20;;
35634;SDS011;21757;43.610;1.440;2022-12-18T08:15:26;31.60;;;17.98;;
35634;SDS011;21757;43.610;1.440;2022-12-18T08:17:52;32.58;;;18.98;;
35634;SDS011;21757;43.610;1.440;2022-12-18T08:20:21;30.00;;;17.92;;
35634;SDS011;21757;43.610;1.440;2022-12-18T08:22:46;26.48;;;17.42;;
35634;SDS011;21757;43.610;1.440;2022-12-18T08:25:12;28.17;;;17.65;;
35634;SDS011;21757;43.610;1.440;2022-12-18T08:27:37;31.02;;;19.60;;
35634;SDS011;21757;43.610;1.440;2022-12-18T08:30:03;26.30;;;16.63;;
35634;SDS011;21757;43.610;1.440;2022-12-18T08:32:30;22.73;;;15.85;;
35634;SDS011;21757;43.610;1.440;2022-12-18T08:34:55;24.23;;;15.85;;
35634;SDS011;21757;43.610;1.440;2022-12-18T08:37:21;21.52;;;15.10;;
35634;SDS011;21757;43.610;1.440;2022-12-18T08:39:47;21.67;;;14.80;;
35634;SDS011;21757;43.610;1.440;2022-12-18T08:42:12;20.50;;;14.68;;
35634;SDS011;21757;43.610;1.440;2022-12-18T08:44:56;21.52;;;14.65;;
35634;SDS011;21757;43.610;1.440;2022-12-18T08:47:22;21.58;;;15.02;;
35634;SDS011;21757;43.610;1.440;2022-12-18T08:49:48;19.08;;;14.13;;
35634;SDS011;21757;43.610;1.440;2022-12-18T08:52:13;24.23;;;14.98;;
35634;SDS011;21757;43.610;1.440;2022-12-18T08:54:39;20.83;;;15.25;;
35634;SDS011;21757;43.610;1.440;2022-12-18T08:57:05;20.63;;;14.95;;
35634;SDS011;21757;43.610;1.440;2022-12-18T08:59:30;23.65;;;14.70;;
35634;SDS011;21757;43.610;1.440;2022-12-18T09:01:56;23.17;;;14.77;;
35634;SDS011;21757;43.610;1.440;2022-12-18T09:04:22;22.77;;;15.18;;
35634;SDS011;21757;43.610;1.440;2022-12-18T09:06:47;23.40;;;15.07;;
35634;SDS011;21757;43.610;1.440;2022-12-18T09:09:13;20.65;;;14.55;;
35634;SDS011;21757;43.610;1.440;2022-12-18T09:11:39;26.55;;;14.25;;
35634;SDS011;21757;43.610;1.440;2022-12-18T09:14:04;20.20;;;14.98;;
35634;SDS011;21757;43.610;1.440;2022-12-18T09:16:30;18.20;;;12.07;;
35634;SDS011;21757;43.610;1.440;2022-12-18T09:18:57;18.00;;;11.77;;
35634;SDS011;21757;43.610;1.440;2022-12-18T09:21:30;18.15;;;11.32;;
35634;SDS011;21757;43.610;1.440;2022-12-18T09:23:57;14.77;;;10.18;;
35634;SDS011;21757;43.610;1.440;2022-12-18T09:26:23;14.90;;;10.45;;
35634;SDS011;21757;43.610;1.440;2022-12-18T09:28:49;20.92;;;10.02;;
35634;SDS011;21757;43.610;1.440;2022-12-18T09:31:16;16.80;;;10.80;;
35634;SDS011;21757;43.610;1.440;2022-12-18T09:33:44;13.60;;;9.50;;
35634;SDS011;21757;43.610;1.440;2022-12-18T09:36:13;14.70;;;10.20;;
35634;SDS011;21757;43.610;1.440;2022-12-18T09:38:40;17.20;;;10.00;;
35634;SDS011;21757;43.610;1.440;2022-12-18T09:49:42;13.85;;;8.13;;
35634;SDS011;21757;43.610;1.440;2022-12-18T09:55:09;15.27;;;8.20;;
35634;SDS011;21757;43.610;1.440;2022-12-18T09:58:17;12.70;;;7.75;;
35634;SDS011;21757;43.610;1.440;2022-12-18T10:00:45;10.90;;;7.50;;
35634;SDS011;21757;43.610;1.440;2022-12-18T10:03:12;15.50;;;7.60;;
35634;SDS011;21757;43.610;1.440;2022-12-18T10:10:56;12.02;;;7.78;;
35634;SDS011;21757;43.610;1.440;2022-12-18T10:13:32;11.35;;;7.82;;
35634;SDS011;21757;43.610;1.440;2022-12-18T10:16:36;10.35;;;7.60;;
35634;SDS011;21757;43.610;1.440;2022-12-18T10:24:56;9.00;;;6.03;;
35634;SDS011;21757;43.610;1.440;2022-12-18T10:27:29;10.43;;;5.72;;
35634;SDS011;21757;43.610;1.440;2022-12-18T10:29:56;9.18;;;5.80;;
35634;SDS011;21757;43.610;1.440;2022-12-18T10:32:24;7.47;;;5.30;;
35634;SDS011;21757;43.610;1.440;2022-12-18T10:34:53;10.02;;;5.97;;
35634;SDS011;21757;43.610;1.440;2022-12-18T10:37:22;8.38;;;5.80;;
35634;SDS011;21757;43.610;1.440;2022-12-18T10:43:13;9.55;;;5.35;;
35634;SDS011;21757;43.610;1.440;2022-12-18T10:45:40;8.93;;;5.85;;
35634;SDS011;21757;43.610;1.440;2022-12-18T10:48:19;8.40;;;5.50;;
35634;SDS011;21757;43.610;1.440;2022-12-18T10:50:47;11.02;;;6.40;;
35634;SDS011;21757;43.610;1.440;2022-12-18T10:53:20;8.55;;;5.97;;
35634;SDS011;21757;43.610;1.440;2022-12-18T10:55:54;8.57;;;5.50;;
35634;SDS011;21757;43.610;1.440;2022-12-18T11:03:39;7.63;;;5.53;;
35634;SDS011;21757;43.610;1.440;2022-12-18T11:08:35;10.02;;;5.30;;
35634;SDS011;21757;43.610;1.440;2022-12-18T11:11:02;8.35;;;5.35;;
35634;SDS011;21757;43.610;1.440;2022-12-18T11:13:29;8.05;;;5.03;;
35634;SDS011;21757;43.610;1.440;2022-12-18T11:15:56;8.07;;;5.05;;
35634;SDS011;21757;43.610;1.440;2022-12-18T11:21:00;8.02;;;5.05;;
35634;SDS011;21757;43.610;1.440;2022-12-18T11:23:34;8.48;;;5.43;;
35634;SDS011;21757;43.610;1.440;2022-12-18T11:26:03;8.73;;;5.35;;
35634;SDS011;21757;43.610;1.440;2022-12-18T11:28:38;7.57;;;4.88;;
35634;SDS011;21757;43.610;1.440;2022-12-18T11:31:19;11.02;;;5.07;;
35634;SDS011;21757;43.610;1.440;2022-12-18T11:36:28;8.32;;;5.00;;
35634;SDS011;21757;43.610;1.440;2022-12-18T11:38:59;9.88;;;4.88;;
35634;SDS011;21757;43.610;1.440;2022-12-18T11:41:45;7.18;;;5.43;;
35634;SDS011;21757;43.610;1.440;2022-12-18T11:50:13;10.45;;;6.00;;
35634;SDS011;21757;43.610;1.440;2022-12-18T11:52:51;9.00;;;6.00;;
35634;SDS011;21757;43.610;1.440;2022-12-18T11:55:22;9.23;;;5.38;;
35634;SDS011;21757;43.610;1.440;2022-12-18T12:00:21;11.93;;;6.40;;
35634;SDS011;21757;43.610;1.440;2022-12-18T12:08:23;13.90;;;6.15;;
35634;SDS011;21757;43.610;1.440;2022-12-18T12:13:35;9.35;;;5.18;;
35634;SDS011;21757;43.610;1.440;2022-12-18T12:16:15;8.48;;;5.20;;
35634;SDS011;21757;43.610;1.440;2022-12-18T12:21:46;12.60;;;6.63;;
35634;SDS011;21757;43.610;1.440;2022-12-18T12:34:48;10.77;;;6.97;;
35634;SDS011;21757;43.610;1.440;2022-12-18T12:40:17;13.38;;;7.10;;
35634;SDS011;21757;43.610;1.440;2022-12-18T12:42:46;15.88;;;10.15;;
35634;SDS011;21757;43.610;1.440;2022-12-18T12:48:04;19.08;;;10.38;;
35634;SDS011;21757;43.610;1.440;2022-12-18T12:50:39;13.27;;;7.57;;
35634;SDS011;21757;43.610;1.440;2022-12-18T12:53:07;14.93;;;6.75;;
35634;SDS011;21757;43.610;1.440;2022-12-18T12:55:34;8.10;;;6.30;;
35634;SDS011;21757;43.610;1.440;2022-12-18T13:01:02;13.43;;;7.10;;
35634;SDS011;21757;43.610;1.440;2022-12-18T13:09:05;10.75;;;7.38;;
35634;SDS011;21757;43.610;1.440;2022-12-18T13:14:32;11.55;;;6.22;;
35634;SDS011;21757;43.610;1.440;2022-12-18T13:20:02;9.60;;;6.38;;
35634;SDS011;21757;43.610;1.440;2022-12-18T13:22:39;10.95;;;6.65;;
35634;SDS011;21757;43.610;1.440;2022-12-18T13:28:09;11.40;;;6.28;;
35634;SDS011;21757;43.610;1.440;2022-12-18T13:30:41;9.90;;;6.32;;
35634;SDS011;21757;43.610;1.440;2022-12-18T13:38:21;15.32;;;8.48;;
35634;SDS011;21757;43.610;1.440;2022-12-18T13:45:50;13.55;;;7.03;;
35634;SDS011;21757;43.610;1.440;2022-12-18T13:49:20;11.38;;;6.75;;
35634;SDS011;21757;43.610;1.440;2022-12-18T13:51:42;9.57;;;6.35;;
35634;SDS011;21757;43.610;1.440;2022-12-18T13:57:04;9.32;;;5.65;;
35634;SDS011;21757;43.610;1.440;2022-12-18T13:59:49;9.70;;;5.90;;
35634;SDS011;21757;43.610;1.440;2022-12-18T14:02:16;8.98;;;5.50;;
35634;SDS011;21757;43.610;1.440;2022-12-18T14:04:46;8.00;;;5.57;;
35634;SDS011;21757;43.610;1.440;2022-12-18T14:07:14;11.23;;;5.93;;
35634;SDS011;21757;43.610;1.440;2022-12-18T14:09:41;9.27;;;5.93;;
35634;SDS011;21757;43.610;1.440;2022-12-18T14:12:44;11.10;;;5.90;;
35634;SDS011;21757;43.610;1.440;2022-12-18T14:17:59;10.95;;;6.72;;
35634;SDS011;21757;43.610;1.440;2022-12-18T14:20:29;9.55;;;5.80;;
35634;SDS011;21757;43.610;1.440;2022-12-18T14:22:57;8.27;;;6.18;;
35634;SDS011;21757;43.610;1.440;2022-12-18T14:25:25;9.48;;;5.68;;
35634;SDS011;21757;43.610;1.440;2022-12-18T14:28:04;8.60;;;5.55;;
35634;SDS011;21757;43.610;1.440;2022-12-18T14:30:42;8.90;;;5.75;;
35634;SDS011;21757;43.610;1.440;2022-12-18T14:33:10;9.38;;;5.40;;
35634;SDS011;21757;43.610;1.440;2022-12-18T14:36:01;8.68;;;5.68;;
35634;SDS011;21757;43.610;1.440;2022-12-18T14:40:52;7.85;;;5.30;;
35634;SDS011;21757;43.610;1.440;2022-12-18T14:43:26;9.15;;;5.63;;
35634;SDS011;21757;43.610;1.440;2022-12-18T14:45:53;11.38;;;6.43;;
35634;SDS011;21757;43.610;1.440;2022-12-18T14:48:21;12.23;;;7.70;;
35634;SDS011;21757;43.610;1.440;2022-12-18T14:51:18;10.27;;;6.63;;
35634;SDS011;21757;43.610;1.440;2022-12-18T14:54:05;12.68;;;8.07;;
35634;SDS011;21757;43.610;1.440;2022-12-18T14:56:44;11.43;;;7.35;;
35634;SDS011;21757;43.610;1.440;2022-12-18T14:59:30;11.93;;;7.35;;
35634;SDS011;21757;43.610;1.440;2022-12-18T15:04:28;10.98;;;6.57;;
35634;SDS011;21757;43.610;1.440;2022-12-18T15:07:16;11.07;;;6.15;;
35634;SDS011;21757;43.610;1.440;2022-12-18T15:20:39;11.15;;;5.93;;
35634;SDS011;21757;43.610;1.440;2022-12-18T15:23:12;8.93;;;5.60;;
35634;SDS011;21757;43.610;1.440;2022-12-18T15:25:46;9.90;;;5.35;;
35634;SDS011;21757;43.610;1.440;2022-12-18T15:28:27;11.68;;;5.22;;
35634;SDS011;21757;43.610;1.440;2022-12-18T15:30:58;8.35;;;5.97;;
35634;SDS011;21757;43.610;1.440;2022-12-18T15:33:24;13.90;;;5.88;;
35634;SDS011;21757;43.610;1.440;2022-12-18T15:36:01;9.75;;;6.28;;
35634;SDS011;21757;43.610;1.440;2022-12-18T15:38:37;13.18;;;6.88;;
35634;SDS011;21757;43.610;1.440;2022-12-18T15:41:03;14.25;;;7.88;;
35634;SDS011;21757;43.610;1.440;2022-12-18T15:43:29;11.23;;;7.28;;
35634;SDS011;21757;43.610;1.440;2022-12-18T15:46:11;14.68;;;7.45;;
35634;SDS011;21757;43.610;1.440;2022-12-18T15:48:40;11.57;;;7.35;;
35634;SDS011;21757;43.610;1.440;2022-12-18T15:51:18;10.57;;;6.88;;
35634;SDS011;21757;43.610;1.440;2022-12-18T15:53:56;12.05;;;7.07;;
35634;SDS011;21757;43.610;1.440;2022-12-18T15:56:25;13.73;;;7.22;;
35634;SDS011;21757;43.610;1.440;2022-12-18T15:59:17;13.90;;;7.20;;
35634;SDS011;21757;43.610;1.440;2022-12-18T16:01:45;12.63;;;7.72;;
35634;SDS011;21757;43.610;1.440;2022-12-18T16:04:13;14.15;;;6.88;;
35634;SDS011;21757;43.610;1.440;2022-12-18T16:06:40;13.63;;;6.85;;
35634;SDS011;21757;43.610;1.440;2022-12-18T16:09:06;13.32;;;8.32;;
35634;SDS011;21757;43.610;1.440;2022-12-18T16:11:33;14.75;;;8.20;;
35634;SDS011;21757;43.610;1.440;2022-12-18T16:14:27;19.48;;;10.95;;
35634;SDS011;21757;43.610;1.440;2022-12-18T16:16:59;17.95;;;10.23;;
35634;SDS011;21757;43.610;1.440;2022-12-18T16:19:30;13.27;;;8.48;;
35634;SDS011;21757;43.610;1.440;2022-12-18T16:21:56;12.20;;;7.50;;
35634;SDS011;21757;43.610;1.440;2022-12-18T16:24:24;16.02;;;8.60;;
35634;SDS011;21757;43.610;1.440;2022-12-18T16:26:51;14.73;;;7.82;;
35634;SDS011;21757;43.610;1.440;2022-12-18T16:29:18;18.13;;;8.27;;
35634;SDS011;21757;43.610;1.440;2022-12-18T16:31:49;17.63;;;11.48;;
35634;SDS011;21757;43.610;1.440;2022-12-18T16:34:18;13.38;;;8.40;;
35634;SDS011;21757;43.610;1.440;2022-12-18T16:36:47;14.70;;;8.10;;
35634;SDS011;21757;43.610;1.440;2022-12-18T16:39:13;20.60;;;8.82;;
35634;SDS011;21757;43.610;1.440;2022-12-18T16:41:39;14.95;;;8.68;;
35634;SDS011;21757;43.610;1.440;2022-12-18T16:44:04;13.93;;;7.90;;
35634;SDS011;21757;43.610;1.440;2022-12-18T16:46:30;14.85;;;9.07;;
35634;SDS011;21757;43.610;1.440;2022-12-18T16:48:56;13.57;;;8.13;;
35634;SDS011;21757;43.610;1.440;2022-12-18T16:51:24;16.10;;;9.35;;
35634;SDS011;21757;43.610;1.440;2022-12-18T16:53:50;15.93;;;10.32;;
35634;SDS011;21757;43.610;1.440;2022-12-18T16:56:16;17.13;;;9.27;;
35634;SDS011;21757;43.610;1.440;2022-12-18T16:58:41;17.63;;;10.13;;
35634;SDS011;21757;43.610;1.440;2022-12-18T17:01:08;17.38;;;10.27;;
35634;SDS011;21757;43.610;1.440;2022-12-18T17:03:37;18.60;;;10.25;;
35634;SDS011;21757;43.610;1.440;2022-12-18T17:06:03;15.90;;;10.20;;
35634;SDS011;21757;43.610;1.440;2022-12-18T17:08:30;25.08;;;14.70;;
35634;SDS011;21757;43.610;1.440;2022-12-18T17:10:56;17.67;;;10.98;;
35634;SDS011;21757;43.610;1.440;2022-12-18T17:13:28;28.33;;;17.80;;
35634;SDS011;21757;43.610;1.440;2022-12-18T17:15:54;64.50;;;39.90;;
35634;SDS011;21757;43.610;1.440;2022-12-18T17:18:19;18.38;;;11.27;;
35634;SDS011;21757;43.610;1.440;2022-12-18T17:20:45;21.15;;;12.18;;
35634;SDS011;21757;43.610;1.440;2022-12-18T17:23:11;18.60;;;10.40;;